Time;durP1;ratioP1;P1;durP2;ratioP2;P2;SDS_P1;SDS_P2;PMS_P1;PMS_P2;Temp;Humidity;BMP_temperature;BMP_pressure;BME280_temperature;BME280_humidity;BME280_pressure;Samples;Min_cycle;Max_cycle;Signal;HPM_P1;HPM_P2
2021/07/15 00:01:56;;;;;;;17.60;14.20;;;;;;;26.00;65.29;99679.18;1669497;85;21018;-73
2021/07/15 00:04:23;;;;;;;16.42;13.38;;;;;;;26.02;65.45;99677.69;1632022;87;21020;-73
2021/07/15 00:06:50;;;;;;;15.55;12.90;;;;;;;26.03;65.38;99679.30;1642587;87;21047;-72
2021/07/15 00:09:18;;;;;;;15.03;13.20;;;;;;;26.05;65.38;99683.06;1641844;87;20956;-72
2021/07/15 00:11:47;;;;;;;17.15;15.35;;;;;;;26.06;65.38;99680.53;1636597;87;21020;-72
2021/07/15 00:14:20;;;;;;;14.93;13.45;;;;;;;26.05;65.46;99676.97;1616199;88;21008;-74
2021/07/15 00:16:53;;;;;;;18.37;16.12;;;;;;;26.04;65.57;99675.97;1622035;86;21052;-76
2021/07/15 00:19:23;;;;;;;16.02;12.95;;;;;;;26.02;65.78;99674.94;1616302;88;21569;-73
2021/07/15 00:21:51;;;;;;;15.50;12.63;;;;;;;26.01;65.86;99672.52;1616079;87;21051;-74
2021/07/15 00:24:18;;;;;;;14.33;12.53;;;;;;;26.00;65.96;99674.47;1630732;86;21052;-74
2021/07/15 00:26:46;;;;;;;14.83;13.45;;;;;;;26.01;65.96;99673.90;1620930;87;21030;-73
2021/07/15 00:29:15;;;;;;;15.72;14.18;;;;;;;25.98;66.11;99677.38;1616209;88;21529;-71
2021/07/15 00:31:43;;;;;;;16.67;14.30;;;;;;;25.96;66.05;99673.58;1616089;88;21004;-72
2021/07/15 00:34:09;;;;;;;14.80;13.45;;;;;;;25.96;66.14;99677.72;1632291;86;21100;-72
2021/07/15 00:36:37;;;;;;;13.90;12.35;;;;;;;25.92;66.27;99674.06;1661711;86;20949;-71
2021/07/15 00:39:06;;;;;;;13.32;12.07;;;;;;;25.94;66.01;99671.77;1652034;86;20929;-70
2021/07/15 00:41:33;;;;;;;17.17;14.20;;;;;;;25.97;66.02;99672.44;1651839;86;21043;-72
2021/07/15 00:44:00;;;;;;;22.20;13.35;;;;;;;25.97;66.14;99675.77;1625158;86;21076;-72
2021/07/15 00:46:28;;;;;;;14.53;13.08;;;;;;;26.00;66.12;99676.42;1635190;86;21027;-72
2021/07/15 00:48:56;;;;;;;14.25;12.55;;;;;;;26.05;66.11;99672.84;1647786;85;21009;-72
2021/07/15 00:51:22;;;;;;;16.97;13.50;;;;;;;26.00;66.40;99668.16;1650515;87;21080;-73
2021/07/15 00:53:49;;;;;;;15.13;13.43;;;;;;;25.86;66.98;99671.33;1659400;85;21573;-73
2021/07/15 00:56:15;;;;;;;18.75;13.43;;;;;;;25.78;67.26;99667.36;1672980;85;21529;-72
2021/07/15 00:58:43;;;;;;;15.13;13.38;;;;;;;25.73;67.36;99671.17;1651877;86;21001;-71
2021/07/15 01:01:09;;;;;;;14.98;13.48;;;;;;;25.74;66.90;99670.02;1651824;86;21588;-70
2021/07/15 01:03:37;;;;;;;14.53;12.15;;;;;;;25.73;67.22;99672.55;1652010;86;21609;-74
2021/07/15 01:06:05;;;;;;;19.77;13.43;;;;;;;25.70;67.49;99676.02;1651945;86;21032;-73
2021/07/15 01:08:32;;;;;;;13.05;11.70;;;;;;;25.70;67.59;99671.89;1651422;85;21059;-72
2021/07/15 01:11:11;;;;;;;15.83;12.47;;;;;;;25.73;67.63;99671.74;1636376;86;21012;-74
2021/07/15 01:13:57;;;;;;;14.00;11.18;;;;;;;25.76;67.49;99675.97;1644756;85;20944;-73
2021/07/15 01:16:38;;;;;;;16.40;13.18;;;;;;;25.82;67.36;99677.33;1652002;86;21040;-74
2021/07/15 01:19:34;;;;;;;16.10;13.08;;;;;;;25.83;67.39;99686.40;1661988;85;21033;-71
2021/07/15 01:22:46;;;;;;;16.67;13.58;;;;;;;25.75;67.63;99679.90;1651711;85;21061;-73
2021/07/15 01:25:53;;;;;;;13.75;12.35;;;;;;;25.67;67.99;99678.08;1679458;85;21409;-72
2021/07/15 01:28:30;;;;;;;15.18;13.45;;;;;;;25.70;67.52;99684.28;1679336;85;20988;-70
2021/07/15 01:30:59;;;;;;;14.73;12.07;;;;;;;25.66;68.06;99675.09;1656973;84;21032;-70
2021/07/15 01:33:28;;;;;;;16.82;13.45;;;;;;;25.63;68.09;99684.06;1659710;85;21036;-68
2021/07/15 01:36:05;;;;;;;13.70;12.10;;;;;;;25.67;68.19;99687.72;1651828;85;21035;-72
2021/07/15 01:38:43;;;;;;;16.32;13.25;;;;;;;25.68;68.17;99678.31;1632636;86;21245;-72
2021/07/15 01:41:17;;;;;;;16.27;13.20;;;;;;;25.71;68.11;99674.06;1639051;86;21120;-70
2021/07/15 01:43:46;;;;;;;14.40;12.82;;;;;;;25.73;68.16;99675.30;1655164;86;20989;-71
2021/07/15 01:46:13;;;;;;;14.33;12.35;;;;;;;25.79;68.11;99680.80;1645412;86;21065;-70
2021/07/15 01:48:41;;;;;;;16.70;13.95;;;;;;;25.82;68.08;99688.92;1590210;89;21050;-71
2021/07/15 01:51:08;;;;;;;15.35;13.58;;;;;;;25.83;68.04;99684.45;1591003;88;22154;-74
2021/07/15 01:53:36;;;;;;;20.30;12.13;;;;;;;25.83;68.02;99684.45;1595661;88;21051;-74
2021/07/15 01:56:04;;;;;;;13.58;12.28;;;;;;;25.82;68.10;99688.92;1614717;88;22233;-76
2021/07/15 01:58:33;;;;;;;14.15;12.43;;;;;;;25.81;68.10;99685.94;1620725;87;21397;-74
2021/07/15 02:01:00;;;;;;;12.40;11.20;;;;;;;25.81;68.09;99692.25;1629651;86;21002;-75
2021/07/15 02:03:27;;;;;;;16.00;14.00;;;;;;;25.82;68.11;99695.81;1618093;86;21151;-70
2021/07/15 02:05:54;;;;;;;19.17;13.03;;;;;;;25.82;67.99;99693.05;1599243;87;21049;-70
2021/07/15 02:08:20;;;;;;;25.45;13.80;;;;;;;25.81;67.85;99693.63;1616054;87;21743;-69
2021/07/15 02:10:49;;;;;;;33.02;15.35;;;;;;;25.81;67.90;99695.00;1617291;87;21568;-68
2021/07/15 02:13:17;;;;;;;30.00;16.67;;;;;;;25.79;67.38;99693.20;1637685;86;21668;-78
2021/07/15 02:15:45;;;;;;;44.38;17.95;;;;;;;25.73;67.59;99688.27;1624043;86;21284;-76
2021/07/15 02:18:15;;;;;;;34.15;18.40;;;;;;;25.66;67.87;99694.98;1630733;86;20918;-74
2021/07/15 02:20:43;;;;;;;33.95;18.25;;;;;;;25.58;68.39;99691.20;1634224;86;21620;-76
2021/07/15 02:23:11;;;;;;;18.23;15.55;;;;;;;25.54;68.38;99690.27;1631183;86;20926;-75
2021/07/15 02:25:41;;;;;;;26.90;16.07;;;;;;;25.54;68.88;99692.48;1657557;86;21061;-75
2021/07/15 02:28:09;;;;;;;26.35;15.75;;;;;;;25.50;68.71;99686.61;1596876;86;21179;-75
2021/07/15 02:30:36;;;;;;;22.90;15.80;;;;;;;25.48;68.82;99685.58;1609090;87;21685;-76
2021/07/15 02:33:12;;;;;;;29.92;19.48;;;;;;;25.47;69.24;99685.91;1609240;88;21078;-75
2021/07/15 02:35:43;;;;;;;18.10;15.32;;;;;;;25.42;69.43;99682.05;1570330;90;21054;-75
2021/07/15 02:38:12;;;;;;;20.62;15.98;;;;;;;25.40;69.73;99690.66;1613588;86;21092;-75
2021/07/15 02:40:38;;;;;;;21.25;15.18;;;;;;;25.38;69.98;99690.77;1591282;89;21791;-74
2021/07/15 02:43:07;;;;;;;29.40;15.05;;;;;;;25.37;70.08;99692.71;1608886;89;37591;-76
2021/07/15 02:45:33;;;;;;;27.98;15.43;;;;;;;25.41;69.59;99699.72;1608824;89;21052;-75
2021/07/15 02:48:01;;;;;;;32.45;15.03;;;;;;;25.43;69.23;99702.34;1610133;86;21040;-75
2021/07/15 02:50:29;;;;;;;33.58;16.57;;;;;;;25.47;69.24;99698.31;1661996;85;21006;-74
2021/07/15 02:52:56;;;;;;;23.57;14.47;;;;;;;25.51;69.06;99693.73;1634738;87;21051;-75
2021/07/15 02:55:24;;;;;;;26.10;15.03;;;;;;;25.56;68.86;99695.67;1601228;88;21052;-75
2021/07/15 02:58:14;;;;;;;22.48;14.63;;;;;;;25.59;68.33;99688.67;1608993;89;20969;-75
2021/07/15 03:00:51;;;;;;;23.62;14.85;;;;;;;25.56;68.36;99689.39;1618566;86;20989;-76
2021/07/15 03:03:22;;;;;;;28.65;16.07;;;;;;;25.51;68.44;99688.22;1645582;86;21066;-75
2021/07/15 03:06:14;;;;;;;27.82;15.72;;;;;;;25.50;68.68;99699.00;1662116;86;21194;-75
2021/07/15 03:08:58;;;;;;;17.15;14.85;;;;;;;25.51;68.77;99701.42;1637414;86;21013;-75
2021/07/15 03:11:35;;;;;;;15.48;13.45;;;;;;;25.49;69.21;99702.91;1626255;87;21585;-74
2021/07/15 03:14:02;;;;;;;26.70;15.75;;;;;;;25.52;69.51;99703.58;1659170;86;21066;-74
2021/07/15 03:16:31;;;;;;;17.20;14.47;;;;;;;25.51;70.07;99699.23;1661652;86;21060;-74
2021/07/15 03:18:57;;;;;;;17.85;15.70;;;;;;;25.52;69.33;99698.87;1642987;86;21569;-74
2021/07/15 03:21:24;;;;;;;17.92;15.63;;;;;;;25.52;70.17;99698.87;1637251;86;21114;-73
2021/07/15 03:23:53;;;;;;;18.60;16.42;;;;;;;25.50;70.43;99701.77;1634914;87;20977;-74
2021/07/15 03:26:20;;;;;;;20.17;17.05;;;;;;;25.52;70.23;99693.94;1616401;87;21101;-75
2021/07/15 03:28:46;;;;;;;17.73;14.58;;;;;;;25.53;70.51;99696.34;1594977;90;21047;-74
2021/07/15 03:31:14;;;;;;;18.90;15.68;;;;;;;25.53;70.73;99696.92;1634947;87;22663;-73
2021/07/15 03:33:40;;;;;;;20.08;14.75;;;;;;;25.53;70.45;99701.05;1605632;87;21044;-73
2021/07/15 03:36:07;;;;;;;21.20;15.35;;;;;;;25.56;70.77;99705.91;1611846;87;21008;-74
2021/07/15 03:38:34;;;;;;;23.38;14.70;;;;;;;25.60;70.63;99705.44;1615074;87;21518;-75
2021/07/15 03:41:02;;;;;;;26.45;15.25;;;;;;;25.66;69.94;99709.53;1640771;87;21049;-74
2021/07/15 03:43:29;;;;;;;17.67;13.55;;;;;;;25.76;69.02;99713.73;1644726;86;21292;-75
2021/07/15 03:45:57;;;;;;;18.15;14.30;;;;;;;25.86;68.24;99714.62;1669603;85;20934;-74
2021/07/15 03:48:26;;;;;;;19.07;14.87;;;;;;;25.92;68.81;99713.22;1669495;85;20980;-75
2021/07/15 03:51:03;;;;;;;20.30;14.90;;;;;;;25.95;68.37;99708.38;1668403;85;21597;-74
2021/07/15 03:53:30;;;;;;;16.00;13.95;;;;;;;25.99;67.91;99714.20;1642516;86;21104;-76
2021/07/15 03:55:58;;;;;;;18.30;15.63;;;;;;;26.01;67.75;99713.87;1642453;87;21605;-75
2021/07/15 03:58:25;;;;;;;17.40;15.55;;;;;;;25.95;67.87;99715.27;1641053;86;21552;-73
2021/07/15 04:00:59;;;;;;;15.98;13.75;;;;;;;25.92;67.40;99715.98;1642205;87;21529;-76
2021/07/15 04:03:27;;;;;;;25.82;14.80;;;;;;;25.92;67.33;99716.78;1642570;87;21112;-75
2021/07/15 04:05:54;;;;;;;23.90;16.45;;;;;;;25.92;67.56;99713.22;1623254;87;21113;-74
2021/07/15 04:08:20;;;;;;;15.80;13.20;;;;;;;25.94;67.76;99715.87;1629014;86;21017;-74
2021/07/15 04:10:49;;;;;;;23.02;16.10;;;;;;;25.98;67.63;99707.69;1616067;88;22167;-74
2021/07/15 04:13:17;;;;;;;32.35;15.95;;;;;;;26.04;67.36;99707.67;1640471;86;21028;-75
2021/07/15 04:16:05;;;;;;;21.70;15.68;;;;;;;26.13;66.95;99712.44;1621476;87;21108;-75
2021/07/15 04:18:34;;;;;;;19.87;14.85;;;;;;;26.19;66.79;99709.63;1613029;86;21526;-74
2021/07/15 04:21:00;;;;;;;23.15;13.72;;;;;;;26.28;66.50;99709.52;1669476;85;21113;-75
2021/07/15 04:23:30;;;;;;;23.05;14.53;;;;;;;26.35;66.03;99700.84;1669551;85;20973;-74
2021/07/15 04:25:57;;;;;;;19.07;14.53;;;;;;;26.37;65.45;99706.02;1672864;85;21677;-75
2021/07/15 04:28:24;;;;;;;24.45;15.65;;;;;;;26.31;65.60;99697.20;1623222;85;21096;-75
2021/07/15 04:31:15;;;;;;;20.30;14.43;;;;;;;26.32;65.98;99696.63;1600327;86;21073;-76
2021/07/15 04:33:41;;;;;;;19.77;14.07;;;;;;;26.29;65.80;99696.73;1670412;85;21135;-73
2021/07/15 04:36:08;;;;;;;20.20;13.53;;;;;;;26.26;65.89;99693.89;1640099;87;20925;-75
2021/07/15 04:38:34;;;;;;;20.30;13.58;;;;;;;26.28;65.80;99696.50;1639243;87;21062;-77
2021/07/15 04:41:01;;;;;;;20.10;14.15;;;;;;;26.32;65.70;99700.19;1595622;88;21101;-77
2021/07/15 04:43:28;;;;;;;20.65;15.28;;;;;;;26.38;65.64;99698.74;1636967;87;21561;-77
2021/07/15 04:45:54;;;;;;;16.75;12.73;;;;;;;26.46;65.35;99696.98;1616834;87;21053;-77
2021/07/15 04:48:21;;;;;;;21.65;12.95;;;;;;;26.53;65.10;99691.63;1636230;87;21021;-78
2021/07/15 04:50:47;;;;;;;15.05;13.50;;;;;;;26.59;64.80;99690.21;1626084;86;21052;-77
2021/07/15 04:53:16;;;;;;;15.20;13.05;;;;;;;26.65;64.54;99687.99;1632001;87;21206;-77
2021/07/15 04:55:43;;;;;;;17.70;13.72;;;;;;;26.66;63.37;99684.08;1616476;87;21622;-78
2021/07/15 04:58:09;;;;;;;30.12;14.63;;;;;;;26.70;64.12;99686.34;1635356;87;21700;-79
2021/07/15 05:00:37;;;;;;;16.93;13.43;;;;;;;26.77;64.11;99680.40;1616286;87;20969;-78
2021/07/15 05:03:30;;;;;;;16.82;13.25;;;;;;;26.79;63.82;99685.00;1636693;86;20993;-77
2021/07/15 05:05:59;;;;;;;;;;;;;;;26.83;63.95;99680.93;1637797;87;21034;-78
2021/07/15 05:08:27;;;;;;;16.23;12.20;;;;;;;26.92;63.84;99683.53;1634296;87;20171;-78
2021/07/15 05:10:53;;;;;;;17.80;13.65;;;;;;;26.98;63.32;99677.95;1635191;86;21206;-77
2021/07/15 05:13:21;;;;;;;19.37;13.60;;;;;;;27.08;62.82;99680.97;1608970;89;21056;-76
2021/07/15 05:15:50;;;;;;;18.32;13.30;;;;;;;27.18;62.77;99679.61;1608766;89;21158;-76
2021/07/15 05:18:17;;;;;;;26.40;14.68;;;;;;;27.27;62.46;99676.86;1608850;89;21057;-78
2021/07/15 05:20:45;;;;;;;26.30;15.75;;;;;;;27.37;62.32;99676.06;1609511;87;21802;-79
2021/07/15 05:23:11;;;;;;;27.35;14.83;;;;;;;27.43;61.27;99679.58;1608908;89;21081;-78
2021/07/15 05:25:40;;;;;;;26.37;14.68;;;;;;;27.49;61.18;99681.47;1608991;86;21064;-76
2021/07/15 05:28:06;;;;;;;26.00;13.85;;;;;;;27.54;61.01;99684.75;1589350;89;21032;-78
2021/07/15 05:30:34;;;;;;;19.15;13.88;;;;;;;27.56;60.94;99683.02;1632397;86;21002;-77
2021/07/15 05:33:01;;;;;;;31.70;12.85;;;;;;;27.57;61.02;99688.19;1629712;87;21040;-76
2021/07/15 05:35:27;;;;;;;16.97;13.18;;;;;;;27.64;61.14;99689.70;1595051;90;21625;-77
2021/07/15 05:37:54;;;;;;;19.75;12.95;;;;;;;27.73;60.84;99688.09;1619652;86;21115;-77
2021/07/15 05:40:20;;;;;;;23.35;13.03;;;;;;;27.83;59.97;99685.32;1652018;86;20940;-76
2021/07/15 05:42:47;;;;;;;23.85;13.15;;;;;;;27.94;59.30;99687.14;1624983;86;21537;-76
2021/07/15 05:45:14;;;;;;;20.27;13.32;;;;;;;28.04;58.71;99684.36;1642732;85;21080;-78
2021/07/15 05:47:40;;;;;;;23.50;13.00;;;;;;;28.13;58.37;99687.72;1677403;85;21875;-77
2021/07/15 05:50:07;;;;;;;22.85;13.70;;;;;;;28.21;58.00;99693.59;1624977;86;21548;-77
2021/07/15 05:52:37;;;;;;;25.32;13.53;;;;;;;28.27;58.28;99685.21;1651201;86;21017;-78
2021/07/15 05:55:04;;;;;;;23.57;12.58;;;;;;;28.29;58.09;99681.50;1652104;86;21068;-77
2021/07/15 05:57:33;;;;;;;22.02;12.85;;;;;;;28.29;58.12;99684.27;1651775;86;21115;-76
2021/07/15 06:00:01;;;;;;;18.98;11.63;;;;;;;28.32;57.43;99679.95;1656681;85;21787;-76
2021/07/15 06:02:27;;;;;;;19.30;10.68;;;;;;;28.42;57.54;99687.06;1651719;86;21076;-78
2021/07/15 06:04:54;;;;;;;12.93;10.88;;;;;;;28.53;55.81;99681.72;1669044;85;21526;-78
2021/07/15 06:07:20;;;;;;;18.23;11.45;;;;;;;28.66;55.43;99679.54;1669014;85;21013;-77
2021/07/15 06:09:47;;;;;;;17.25;10.90;;;;;;;28.77;54.74;99691.05;1644170;86;21044;-77
2021/07/15 06:12:14;;;;;;;17.20;10.60;;;;;;;28.85;53.43;99681.66;1625803;86;21165;-77
2021/07/15 06:14:40;;;;;;;21.05;11.80;;;;;;;28.94;52.62;99679.43;1599364;88;21083;-78
2021/07/15 06:17:08;;;;;;;14.75;11.35;;;;;;;29.04;52.13;99680.76;1625155;88;21015;-75
2021/07/15 06:19:35;;;;;;;12.15;9.98;;;;;;;29.13;51.75;99679.09;1660390;85;21173;-76
2021/07/15 06:22:03;;;;;;;9.05;8.05;;;;;;;29.16;51.89;99668.67;1679016;85;20941;-76
2021/07/15 06:24:29;;;;;;;35.33;12.43;;;;;;;29.20;51.94;99678.63;1672721;85;21477;-77
2021/07/15 06:26:56;;;;;;;13.68;9.55;;;;;;;29.28;52.05;99676.16;1625997;85;21613;-77
2021/07/15 06:29:22;;;;;;;11.73;10.18;;;;;;;29.39;51.50;99672.17;1640074;86;21008;-76
2021/07/15 06:31:49;;;;;;;13.50;9.25;;;;;;;29.50;50.57;99671.70;1645811;86;21112;-77
2021/07/15 06:34:15;;;;;;;19.82;10.20;;;;;;;29.58;49.83;99673.41;1652125;86;21087;-78
2021/07/15 06:36:45;;;;;;;16.48;9.45;;;;;;;29.63;49.68;99667.53;1651986;85;21136;-77
2021/07/15 06:39:13;;;;;;;10.72;9.28;;;;;;;29.64;49.67;99666.33;1624690;86;21045;-77
2021/07/15 06:41:40;;;;;;;17.60;11.38;;;;;;;29.69;49.58;99657.68;1636592;86;21032;-76
2021/07/15 06:44:09;;;;;;;16.62;9.78;;;;;;;29.76;49.51;99656.97;1635318;87;21077;-78
2021/07/15 06:46:38;;;;;;;13.58;9.75;;;;;;;29.80;48.53;99664.74;1635124;87;21112;-77
2021/07/15 06:49:05;;;;;;;12.10;9.38;;;;;;;29.82;47.95;99653.49;1635035;87;21766;-77
2021/07/15 06:51:32;;;;;;;11.95;8.78;;;;;;;29.89;47.69;99653.59;1620118;87;21101;-77
2021/07/15 06:53:59;;;;;;;11.68;10.45;;;;;;;29.97;47.17;99646.74;1606512;87;21024;-77
2021/07/15 06:56:25;;;;;;;9.03;8.10;;;;;;;30.04;47.50;99651.76;1609008;89;20993;-77
2021/07/15 06:58:52;;;;;;;18.42;9.85;;;;;;;30.12;47.58;99654.80;1633930;86;21044;-77
2021/07/15 07:01:19;;;;;;;17.40;10.10;;;;;;;30.15;47.34;99645.73;1633921;87;21149;-77
2021/07/15 07:03:46;;;;;;;10.65;9.30;;;;;;;30.19;46.65;99643.78;1592161;87;21072;-77
2021/07/15 07:06:12;;;;;;;13.62;8.78;;;;;;;30.26;46.60;99652.16;1593713;88;21083;-79
2021/07/15 07:08:40;;;;;;;13.55;9.83;;;;;;;30.30;46.69;99650.23;1627637;86;21029;-78
2021/07/15 07:11:06;;;;;;;11.22;8.45;;;;;;;30.32;46.69;99657.58;1635192;87;21116;-78
2021/07/15 07:13:34;;;;;;;13.40;8.75;;;;;;;30.38;46.59;99657.22;1634328;86;21061;-77
2021/07/15 07:16:03;;;;;;;18.50;9.68;;;;;;;30.42;46.00;99654.69;1661852;86;21005;-78
2021/07/15 07:18:30;;;;;;;11.38;8.88;;;;;;;30.50;46.10;99652.81;1661886;85;21090;-77
2021/07/15 07:20:57;;;;;;;15.63;8.73;;;;;;;30.58;45.86;99666.36;1642467;86;21010;-78
2021/07/15 07:23:25;;;;;;;11.95;8.98;;;;;;;30.63;44.69;99662.42;1635021;86;21124;-78
2021/07/15 07:25:51;;;;;;;12.00;9.58;;;;;;;30.63;44.93;99663.81;1615124;87;21159;-79
2021/07/15 07:28:17;;;;;;;12.90;9.80;;;;;;;30.67;44.84;99664.05;1634989;87;21041;-77
2021/07/15 07:30:44;;;;;;;12.47;9.70;;;;;;;30.70;45.11;99659.10;1616196;87;21005;-76
2021/07/15 07:33:11;;;;;;;19.67;10.32;;;;;;;30.75;44.77;99664.30;1634929;87;21061;-76
2021/07/15 07:35:40;;;;;;;13.70;8.68;;;;;;;30.82;44.59;99662.17;1635524;86;21617;-77
2021/07/15 07:38:08;;;;;;;17.55;10.65;;;;;;;30.86;44.00;99656.05;1633494;87;21546;-76
2021/07/15 07:40:34;;;;;;;17.25;11.30;;;;;;;30.92;43.90;99664.23;1618010;87;20917;-77
2021/07/15 07:43:02;;;;;;;12.50;10.40;;;;;;;31.00;43.27;99653.95;1596617;88;21124;-77
2021/07/15 07:45:29;;;;;;;11.15;8.60;;;;;;;31.04;43.35;99653.41;1576157;88;21040;-76
2021/07/15 07:47:57;;;;;;;13.32;10.90;;;;;;;31.05;43.23;99658.58;1575142;89;21055;-77
2021/07/15 07:50:25;;;;;;;13.00;10.40;;;;;;;31.06;43.40;99657.40;1592502;88;21754;-78
2021/07/15 07:52:51;;;;;;;18.12;10.28;;;;;;;31.13;42.74;99655.23;1543496;91;21138;-77
2021/07/15 07:55:19;;;;;;;16.73;9.60;;;;;;;31.19;42.48;99664.80;1562164;91;21038;-78
2021/07/15 07:57:45;;;;;;;20.32;10.53;;;;;;;31.28;42.36;99661.67;1597526;88;21659;-77
2021/07/15 08:00:15;;;;;;;18.15;10.40;;;;;;;31.37;41.88;99666.28;1624026;88;21505;-77
2021/07/15 08:02:44;;;;;;;13.80;10.53;;;;;;;31.42;41.86;99664.52;1624323;87;21099;-78
2021/07/15 08:05:11;;;;;;;13.03;9.88;;;;;;;31.49;41.75;99661.78;1596491;88;21039;-77
2021/07/15 08:07:40;;;;;;;18.55;9.65;;;;;;;31.55;41.29;99668.56;1624193;88;20999;-76
2021/07/15 08:10:10;;;;;;;18.60;9.75;;;;;;;31.50;41.58;99662.79;1622216;88;21048;-77
2021/07/15 08:12:37;;;;;;;13.85;9.88;;;;;;;31.52;41.48;99665.95;1602650;87;21091;-75
2021/07/15 08:15:06;;;;;;;12.58;10.20;;;;;;;31.62;40.83;99664.44;1598990;88;21120;-76
2021/07/15 08:17:32;;;;;;;17.42;9.98;;;;;;;31.66;40.87;99654.11;1648470;87;21008;-76
2021/07/15 08:20:00;;;;;;;27.05;12.07;;;;;;;31.74;41.05;99668.86;1633784;87;21056;-76
2021/07/15 08:22:26;;;;;;;21.20;11.30;;;;;;;31.79;40.62;99667.89;1598226;88;21008;-76
2021/07/15 08:24:53;;;;;;;18.90;11.22;;;;;;;31.77;41.00;99660.52;1596952;88;21060;-77
2021/07/15 08:27:19;;;;;;;16.55;11.05;;;;;;;31.76;41.25;99654.75;1624293;87;21621;-79
2021/07/15 08:29:46;;;;;;;16.40;10.30;;;;;;;31.81;41.11;99661.91;1596625;88;20968;-77
2021/07/15 08:32:12;;;;;;;22.07;11.68;;;;;;;31.79;40.67;99662.33;1596976;88;21545;-78
2021/07/15 08:34:39;;;;;;;21.02;11.90;;;;;;;31.77;40.49;99659.13;1619932;87;21600;-78
2021/07/15 08:37:06;;;;;;;19.12;10.88;;;;;;;31.83;40.85;99657.56;1595599;88;21025;-77
2021/07/15 08:39:33;;;;;;;24.12;11.95;;;;;;;31.89;40.51;99653.22;1623992;87;21294;-77
2021/07/15 08:41:59;;;;;;;17.00;10.75;;;;;;;32.00;40.56;99657.39;1624127;88;21096;-77
2021/07/15 08:44:28;;;;;;;19.37;10.68;;;;;;;32.14;39.99;99654.66;1596634;88;20988;-78
2021/07/15 08:46:57;;;;;;;11.90;9.43;;;;;;;32.27;39.89;99646.73;1624105;88;21119;-78
2021/07/15 08:49:24;;;;;;;10.75;9.23;;;;;;;32.38;39.16;99644.73;1646256;87;21003;-78
2021/07/15 08:51:53;;;;;;;21.57;11.35;;;;;;;32.34;38.40;99637.78;1650649;85;21096;-77
2021/07/15 08:54:21;;;;;;;13.18;10.38;;;;;;;32.34;38.69;99635.00;1629300;87;20988;-77
2021/07/15 08:56:47;;;;;;;17.20;10.72;;;;;;;32.43;38.67;99644.34;1593301;88;21032;-78
2021/07/15 08:59:16;;;;;;;11.78;8.68;;;;;;;32.51;38.09;99649.33;1571671;89;21617;-76
2021/07/15 09:01:45;;;;;;;17.75;10.32;;;;;;;32.57;37.27;99642.14;1624313;87;21048;-78
2021/07/15 09:04:11;;;;;;;16.35;10.03;;;;;;;32.61;37.76;99636.00;1626382;87;21007;-77
2021/07/15 09:06:41;;;;;;;10.70;8.85;;;;;;;32.70;37.76;99635.82;1627519;87;21038;-76
2021/07/15 09:09:09;;;;;;;11.22;10.08;;;;;;;32.83;37.58;99641.16;1627781;87;21015;-78
2021/07/15 09:11:39;;;;;;;15.25;9.38;;;;;;;32.85;37.86;99641.54;1646837;86;21041;-78
2021/07/15 09:14:19;;;;;;;15.18;10.43;;;;;;;32.77;36.52;99638.58;1646886;86;21493;-79
2021/07/15 09:16:50;;;;;;;15.05;9.83;;;;;;;32.67;37.20;99628.24;1623962;87;21060;-77
2021/07/15 09:19:26;;;;;;;16.65;11.10;;;;;;;32.63;37.40;99626.06;1587340;89;21130;-77
2021/07/15 09:21:50;;;;;;;14.53;8.80;;;;;;;32.68;37.48;99631.23;1596419;88;21032;-77
2021/07/15 09:24:37;;;;;;;10.13;9.05;;;;;;;32.79;36.86;99632.61;1580634;89;21044;-76
2021/07/15 09:27:18;;;;;;;21.15;11.95;;;;;;;32.86;35.93;99625.02;1588063;89;21024;-77
2021/07/15 09:29:47;;;;;;;15.13;12.63;;;;;;;32.94;36.50;99628.61;1601871;87;21042;-78
2021/07/15 09:32:16;;;;;;;11.33;8.68;;;;;;;33.01;36.42;99631.36;1603000;87;21098;-72
2021/07/15 09:34:44;;;;;;;10.80;8.70;;;;;;;32.96;35.23;99626.20;1642453;86;20966;-74
2021/07/15 09:37:15;;;;;;;15.70;10.63;;;;;;;32.96;35.04;99626.20;1625474;85;21572;-73
2021/07/15 09:39:48;;;;;;;11.83;9.18;;;;;;;32.97;35.87;99615.84;1630716;87;21629;-72
2021/07/15 09:42:20;;;;;;;10.15;8.30;;;;;;;33.07;36.66;99613.04;1631297;86;20989;-77
2021/07/15 09:44:50;;;;;;;11.18;8.68;;;;;;;33.18;36.81;99622.80;1618923;86;21067;-80
2021/07/15 09:47:44;;;;;;;15.75;9.95;;;;;;;33.19;36.67;99619.58;1651545;86;21036;-75
2021/07/15 09:50:26;;;;;;;9.85;8.95;;;;;;;33.21;36.59;99622.77;1657642;86;27937;-75
2021/07/15 09:52:55;;;;;;;13.48;12.30;;;;;;;33.16;36.68;99612.04;1608769;89;21366;-74
2021/07/15 09:55:25;;;;;;;10.72;7.90;;;;;;;33.14;36.67;99615.02;1570258;90;20998;-71
2021/07/15 09:58:06;;;;;;;17.55;10.50;;;;;;;33.18;36.43;99611.64;1657473;86;21570;-71
2021/07/15 10:00:37;;;;;;;8.08;7.47;;;;;;;33.15;36.57;99602.64;1661444;85;21025;-70
2021/07/15 10:03:05;;;;;;;11.80;9.85;;;;;;;33.19;36.34;99603.48;1602824;87;21553;-72
2021/07/15 10:05:35;;;;;;;10.85;9.70;;;;;;;33.18;36.45;99598.50;1621002;87;21080;-73
2021/07/15 10:08:09;;;;;;;12.70;11.40;;;;;;;33.18;36.41;99590.14;1626033;86;21079;-74
2021/07/15 10:10:38;;;;;;;14.80;10.53;;;;;;;33.24;36.43;99600.25;1630489;87;20946;-75
2021/07/15 10:13:15;;;;;;;13.13;9.40;;;;;;;33.33;36.60;99607.60;1631858;87;21025;-75
2021/07/15 10:15:44;;;;;;;13.93;8.75;;;;;;;33.32;36.05;99596.25;1608389;89;21024;-72
2021/07/15 10:18:12;;;;;;;14.95;9.60;;;;;;;33.22;36.63;99608.23;1638899;86;21553;-74
2021/07/15 10:20:52;;;;;;;19.52;11.57;;;;;;;33.22;36.50;99592.31;1642038;86;21136;-72
2021/07/15 10:23:41;;;;;;;15.23;10.23;;;;;;;33.21;36.28;99596.88;1638461;85;20941;-71
2021/07/15 10:26:09;;;;;;;13.65;10.28;;;;;;;33.38;36.02;99602.20;1635362;87;21007;-73
2021/07/15 10:28:39;;;;;;;9.95;9.15;;;;;;;33.53;35.41;99583.58;1637335;86;21017;-71
2021/07/15 10:31:06;;;;;;;11.63;10.35;;;;;;;33.71;35.31;99589.10;1622141;87;21134;-71
2021/07/15 10:33:34;;;;;;;15.58;9.83;;;;;;;33.83;34.41;99584.42;1608816;89;21048;-72
2021/07/15 10:36:05;;;;;;;16.00;8.23;;;;;;;33.90;34.45;99602.53;1624644;86;21598;-75
2021/07/15 10:38:41;;;;;;;11.48;10.30;;;;;;;33.85;34.52;99591.00;1624751;86;21510;-73
2021/07/15 10:41:08;;;;;;;12.23;10.20;;;;;;;33.79;35.12;99579.48;1644673;86;20945;-73
2021/07/15 10:43:35;;;;;;;16.93;9.03;;;;;;;33.85;35.04;99589.02;1622390;87;21533;-71
2021/07/15 10:46:03;;;;;;;14.65;9.13;;;;;;;33.96;35.15;99589.70;1642315;86;21126;-71
2021/07/15 10:48:33;;;;;;;17.92;9.83;;;;;;;34.08;34.60;99587.05;1642226;87;21566;-73
2021/07/15 10:51:02;;;;;;;8.83;8.03;;;;;;;34.13;34.06;99580.42;1649579;86;20950;-72
2021/07/15 10:53:29;;;;;;;12.63;7.60;;;;;;;34.15;34.19;99566.83;1655618;86;21060;-74
2021/07/15 10:55:56;;;;;;;10.60;8.13;;;;;;;34.10;34.14;99568.66;1642602;87;21028;-75
2021/07/15 10:58:50;;;;;;;10.40;8.60;;;;;;;34.10;34.36;99572.08;1642269;87;21653;-72
2021/07/15 11:01:36;;;;;;;7.58;6.87;;;;;;;34.20;34.19;99578.81;1626456;87;21625;-73
2021/07/15 11:04:16;;;;;;;9.45;8.60;;;;;;;34.28;33.14;99572.75;1618971;86;21498;-76
2021/07/15 11:06:50;;;;;;;11.85;8.55;;;;;;;34.30;32.95;99577.90;1632490;87;21036;-72
2021/07/15 11:09:30;;;;;;;14.75;11.75;;;;;;;34.16;33.08;99567.63;1642467;87;21545;-74
2021/07/15 11:11:59;;;;;;;9.18;8.28;;;;;;;34.06;33.45;99566.50;1639203;86;21055;-72
2021/07/15 11:14:40;;;;;;;11.93;8.40;;;;;;;34.06;33.07;99560.13;1629272;87;21039;-73
2021/07/15 11:17:32;;;;;;;10.55;7.97;;;;;;;34.04;33.09;99559.16;1623300;87;21032;-74
2021/07/15 11:20:29;;;;;;;18.85;10.23;;;;;;;34.15;32.65;99555.66;1622271;87;21572;-73
2021/07/15 11:23:13;;;;;;;13.85;8.75;;;;;;;34.21;33.17;99568.61;1629919;86;21588;-74
2021/07/15 11:25:41;;;;;;;15.80;10.68;;;;;;;34.22;33.62;99549.27;1621198;86;21496;-73
2021/07/15 11:28:18;;;;;;;22.82;10.40;;;;;;;34.32;33.57;99548.97;1642170;87;21644;-73
2021/07/15 11:30:52;;;;;;;18.52;10.80;;;;;;;34.44;33.00;99559.61;1648060;86;21088;-76
2021/07/15 11:33:27;;;;;;;12.33;10.08;;;;;;;34.56;32.97;99559.11;1632804;85;21028;-76